sensor_id;sensor_type;location;lat;lon;timestamp;temperature;humidity
37300;DHT22;23184;51.902;12.836;2022-08-19T00:00:34;21.00;99.90
37300;DHT22;23184;51.902;12.836;2022-08-19T00:03:00;21.00;99.90
37300;DHT22;23184;51.902;12.836;2022-08-19T00:05:25;21.00;99.90
37300;DHT22;23184;51.902;12.836;2022-08-19T00:07:51;20.90;99.90
37300;DHT22;23184;51.902;12.836;2022-08-19T00:10:18;21.00;99.90
37300;DHT22;23184;51.902;12.836;2022-08-19T00:12:44;21.10;99.90
37300;DHT22;23184;51.902;12.836;2022-08-19T00:15:13;21.20;99.90
37300;DHT22;23184;51.902;12.836;2022-08-19T00:17:43;21.10;99.90
37300;DHT22;23184;51.902;12.836;2022-08-19T00:20:12;21.10;99.90
37300;DHT22;23184;51.902;12.836;2022-08-19T00:22:38;21.20;99.90
37300;DHT22;23184;51.902;12.836;2022-08-19T00:25:07;21.30;99.90
37300;DHT22;23184;51.902;12.836;2022-08-19T00:27:33;21.30;99.90
37300;DHT22;23184;51.902;12.836;2022-08-19T00:29:58;21.10;99.90
37300;DHT22;23184;51.902;12.836;2022-08-19T00:32:24;21.00;99.90
37300;DHT22;23184;51.902;12.836;2022-08-19T00:34:50;20.80;99.90
37300;DHT22;23184;51.902;12.836;2022-08-19T00:37:20;20.70;99.90
37300;DHT22;23184;51.902;12.836;2022-08-19T00:39:50;20.60;99.90
37300;DHT22;23184;51.902;12.836;2022-08-19T00:42:17;20.60;99.90
37300;DHT22;23184;51.902;12.836;2022-08-19T00:44:43;20.60;99.90
37300;DHT22;23184;51.902;12.836;2022-08-19T00:47:09;20.60;99.90
37300;DHT22;23184;51.902;12.836;2022-08-19T00:49:50;20.50;99.90
37300;DHT22;23184;51.902;12.836;2022-08-19T00:52:38;20.50;99.90
37300;DHT22;23184;51.902;12.836;2022-08-19T00:55:06;20.40;99.90
37300;DHT22;23184;51.902;12.836;2022-08-19T00:57:39;20.40;99.90
37300;DHT22;23184;51.902;12.836;2022-08-19T01:00:11;20.40;99.90
37300;DHT22;23184;51.902;12.836;2022-08-19T01:02:38;20.40;99.90
37300;DHT22;23184;51.902;12.836;2022-08-19T01:05:08;20.40;99.90
37300;DHT22;23184;51.902;12.836;2022-08-19T01:07:35;20.40;99.90
37300;DHT22;23184;51.902;12.836;2022-08-19T01:10:04;20.60;99.90
37300;DHT22;23184;51.902;12.836;2022-08-19T01:12:30;20.60;99.90
37300;DHT22;23184;51.902;12.836;2022-08-19T01:14:57;20.60;99.90
37300;DHT22;23184;51.902;12.836;2022-08-19T01:17:22;20.50;99.90
37300;DHT22;23184;51.902;12.836;2022-08-19T01:19:48;20.40;99.90
37300;DHT22;23184;51.902;12.836;2022-08-19T01:24:46;19.60;99.90
37300;DHT22;23184;51.902;12.836;2022-08-19T01:27:12;19.50;99.90
37300;DHT22;23184;51.902;12.836;2022-08-19T01:29:40;19.60;99.90
37300;DHT22;23184;51.902;12.836;2022-08-19T01:32:07;19.70;99.90
37300;DHT22;23184;51.902;12.836;2022-08-19T01:34:33;19.90;99.90
37300;DHT22;23184;51.902;12.836;2022-08-19T01:37:00;19.90;99.90
37300;DHT22;23184;51.902;12.836;2022-08-19T01:39:27;20.00;99.90
37300;DHT22;23184;51.902;12.836;2022-08-19T01:41:53;20.00;99.90
37300;DHT22;23184;51.902;12.836;2022-08-19T01:44:20;20.10;99.90
37300;DHT22;23184;51.902;12.836;2022-08-19T01:47:24;20.10;99.90
37300;DHT22;23184;51.902;12.836;2022-08-19T01:49:49;20.20;99.90
37300;DHT22;23184;51.902;12.836;2022-08-19T01:52:15;20.30;99.90
37300;DHT22;23184;51.902;12.836;2022-08-19T01:54:40;20.30;99.90
37300;DHT22;23184;51.902;12.836;2022-08-19T01:57:09;20.30;99.90
37300;DHT22;23184;51.902;12.836;2022-08-19T01:59:36;20.20;99.90
37300;DHT22;23184;51.902;12.836;2022-08-19T02:02:04;20.10;99.90
37300;DHT22;23184;51.902;12.836;2022-08-19T02:04:33;20.10;99.90
37300;DHT22;23184;51.902;12.836;2022-08-19T02:06:59;20.10;99.90
37300;DHT22;23184;51.902;12.836;2022-08-19T02:09:25;20.10;99.90
37300;DHT22;23184;51.902;12.836;2022-08-19T02:11:50;20.10;99.90
37300;DHT22;23184;51.902;12.836;2022-08-19T02:14:16;20.10;99.90
37300;DHT22;23184;51.902;12.836;2022-08-19T02:16:41;20.10;99.90
37300;DHT22;23184;51.902;12.836;2022-08-19T02:19:07;20.10;99.90
37300;DHT22;23184;51.902;12.836;2022-08-19T02:21:34;20.10;99.90
37300;DHT22;23184;51.902;12.836;2022-08-19T02:24:00;20.10;99.90
37300;DHT22;23184;51.902;12.836;2022-08-19T02:26:26;20.00;99.90
37300;DHT22;23184;51.902;12.836;2022-08-19T02:28:53;20.00;99.90
37300;DHT22;23184;51.902;12.836;2022-08-19T02:31:21;20.10;99.90
37300;DHT22;23184;51.902;12.836;2022-08-19T02:33:47;20.10;99.90
37300;DHT22;23184;51.902;12.836;2022-08-19T02:36:14;20.10;99.90
37300;DHT22;23184;51.902;12.836;2022-08-19T02:38:40;20.10;99.90
37300;DHT22;23184;51.902;12.836;2022-08-19T02:41:14;20.10;99.90
37300;DHT22;23184;51.902;12.836;2022-08-19T02:43:40;20.20;99.90
37300;DHT22;23184;51.902;12.836;2022-08-19T02:46:19;20.20;99.90
37300;DHT22;23184;51.902;12.836;2022-08-19T02:48:48;20.20;99.90
37300;DHT22;23184;51.902;12.836;2022-08-19T02:51:25;20.30;99.90
37300;DHT22;23184;51.902;12.836;2022-08-19T02:53:52;20.30;99.90
37300;DHT22;23184;51.902;12.836;2022-08-19T02:56:19;20.30;99.90
37300;DHT22;23184;51.902;12.836;2022-08-19T02:58:45;20.10;99.90
37300;DHT22;23184;51.902;12.836;2022-08-19T03:01:11;20.10;99.90
37300;DHT22;23184;51.902;12.836;2022-08-19T03:03:44;20.10;99.90
37300;DHT22;23184;51.902;12.836;2022-08-19T03:06:13;20.00;99.90
37300;DHT22;23184;51.902;12.836;2022-08-19T03:08:42;20.00;99.90
37300;DHT22;23184;51.902;12.836;2022-08-19T03:11:21;20.00;99.90
37300;DHT22;23184;51.902;12.836;2022-08-19T03:13:48;19.90;99.90
37300;DHT22;23184;51.902;12.836;2022-08-19T03:16:15;19.90;99.90
37300;DHT22;23184;51.902;12.836;2022-08-19T03:18:41;19.90;99.90
37300;DHT22;23184;51.902;12.836;2022-08-19T03:21:07;19.90;99.90
37300;DHT22;23184;51.902;12.836;2022-08-19T03:23:34;19.90;99.90
37300;DHT22;23184;51.902;12.836;2022-08-19T03:26:03;19.90;99.90
37300;DHT22;23184;51.902;12.836;2022-08-19T03:28:29;19.90;99.90
37300;DHT22;23184;51.902;12.836;2022-08-19T03:31:07;19.90;99.90
37300;DHT22;23184;51.902;12.836;2022-08-19T03:33:34;19.90;99.90
37300;DHT22;23184;51.902;12.836;2022-08-19T03:36:17;20.00;99.90
37300;DHT22;23184;51.902;12.836;2022-08-19T03:38:45;20.00;99.90
37300;DHT22;23184;51.902;12.836;2022-08-19T03:41:15;20.00;99.90
37300;DHT22;23184;51.902;12.836;2022-08-19T03:43:42;20.00;99.90
37300;DHT22;23184;51.902;12.836;2022-08-19T03:46:13;20.00;99.90
37300;DHT22;23184;51.902;12.836;2022-08-19T03:48:41;20.00;99.90
37300;DHT22;23184;51.902;12.836;2022-08-19T03:51:08;20.00;99.90
37300;DHT22;23184;51.902;12.836;2022-08-19T03:53:40;19.90;99.90
37300;DHT22;23184;51.902;12.836;2022-08-19T03:56:08;19.90;99.90
37300;DHT22;23184;51.902;12.836;2022-08-19T03:58:33;20.00;99.90
37300;DHT22;23184;51.902;12.836;2022-08-19T04:00:59;20.00;99.90
37300;DHT22;23184;51.902;12.836;2022-08-19T04:03:25;20.00;99.90
37300;DHT22;23184;51.902;12.836;2022-08-19T04:05:52;20.00;99.90
37300;DHT22;23184;51.902;12.836;2022-08-19T04:08:18;20.10;99.90
37300;DHT22;23184;51.902;12.836;2022-08-19T04:10:46;20.20;99.90
37300;DHT22;23184;51.902;12.836;2022-08-19T04:13:12;20.20;99.90
37300;DHT22;23184;51.902;12.836;2022-08-19T04:15:42;20.30;99.90
37300;DHT22;23184;51.902;12.836;2022-08-19T04:18:11;20.30;99.90
37300;DHT22;23184;51.902;12.836;2022-08-19T04:20:41;20.30;99.90
37300;DHT22;23184;51.902;12.836;2022-08-19T04:23:07;20.20;99.90
37300;DHT22;23184;51.902;12.836;2022-08-19T04:25:38;20.30;99.90
37300;DHT22;23184;51.902;12.836;2022-08-19T04:28:04;20.30;99.90
37300;DHT22;23184;51.902;12.836;2022-08-19T04:30:29;20.30;99.90
37300;DHT22;23184;51.902;12.836;2022-08-19T04:32:55;20.10;99.90
37300;DHT22;23184;51.902;12.836;2022-08-19T04:35:20;20.00;99.90
37300;DHT22;23184;51.902;12.836;2022-08-19T04:37:46;19.90;99.90
37300;DHT22;23184;51.902;12.836;2022-08-19T04:40:11;19.70;99.90
37300;DHT22;23184;51.902;12.836;2022-08-19T04:42:56;19.60;99.90
37300;DHT22;23184;51.902;12.836;2022-08-19T04:45:22;19.70;99.90
37300;DHT22;23184;51.902;12.836;2022-08-19T04:47:47;19.60;99.90
37300;DHT22;23184;51.902;12.836;2022-08-19T04:50:13;19.70;99.90
37300;DHT22;23184;51.902;12.836;2022-08-19T04:52:40;19.70;99.90
37300;DHT22;23184;51.902;12.836;2022-08-19T04:55:10;19.80;99.90
37300;DHT22;23184;51.902;12.836;2022-08-19T04:57:36;19.80;99.90
37300;DHT22;23184;51.902;12.836;2022-08-19T05:00:06;19.80;99.90
37300;DHT22;23184;51.902;12.836;2022-08-19T05:02:32;19.80;99.90
37300;DHT22;23184;51.902;12.836;2022-08-19T05:04:58;19.80;99.90
37300;DHT22;23184;51.902;12.836;2022-08-19T05:07:26;19.80;99.90
37300;DHT22;23184;51.902;12.836;2022-08-19T05:09:52;19.90;99.90
37300;DHT22;23184;51.902;12.836;2022-08-19T05:12:18;19.90;99.90
37300;DHT22;23184;51.902;12.836;2022-08-19T05:14:45;20.10;99.90
37300;DHT22;23184;51.902;12.836;2022-08-19T05:17:12;20.10;99.90
37300;DHT22;23184;51.902;12.836;2022-08-19T05:19:38;20.20;99.90
37300;DHT22;23184;51.902;12.836;2022-08-19T05:22:22;20.30;99.90
37300;DHT22;23184;51.902;12.836;2022-08-19T05:24:57;20.50;99.90
37300;DHT22;23184;51.902;12.836;2022-08-19T05:27:23;20.50;99.90
37300;DHT22;23184;51.902;12.836;2022-08-19T05:29:48;20.60;99.90
37300;DHT22;23184;51.902;12.836;2022-08-19T05:32:14;20.70;99.90
37300;DHT22;23184;51.902;12.836;2022-08-19T05:34:39;20.80;99.90
37300;DHT22;23184;51.902;12.836;2022-08-19T05:37:05;20.90;99.90
37300;DHT22;23184;51.902;12.836;2022-08-19T05:39:34;21.00;99.90
37300;DHT22;23184;51.902;12.836;2022-08-19T05:42:05;21.00;99.90
37300;DHT22;23184;51.902;12.836;2022-08-19T05:44:37;21.00;99.90
37300;DHT22;23184;51.902;12.836;2022-08-19T05:47:06;21.10;99.90
37300;DHT22;23184;51.902;12.836;2022-08-19T05:49:35;21.10;99.90
37300;DHT22;23184;51.902;12.836;2022-08-19T05:52:04;21.20;99.90
37300;DHT22;23184;51.902;12.836;2022-08-19T05:54:30;21.20;99.90
37300;DHT22;23184;51.902;12.836;2022-08-19T05:56:56;21.20;99.90
37300;DHT22;23184;51.902;12.836;2022-08-19T05:59:22;21.20;99.90
37300;DHT22;23184;51.902;12.836;2022-08-19T06:01:49;21.20;99.90
37300;DHT22;23184;51.902;12.836;2022-08-19T06:04:21;21.10;99.90
37300;DHT22;23184;51.902;12.836;2022-08-19T06:06:48;21.10;99.90
37300;DHT22;23184;51.902;12.836;2022-08-19T06:09:14;21.10;99.90
37300;DHT22;23184;51.902;12.836;2022-08-19T06:11:51;21.10;99.90
37300;DHT22;23184;51.902;12.836;2022-08-19T06:14:21;21.00;99.90
37300;DHT22;23184;51.902;12.836;2022-08-19T06:16:48;21.00;99.90
37300;DHT22;23184;51.902;12.836;2022-08-19T06:19:17;21.00;99.90
37300;DHT22;23184;51.902;12.836;2022-08-19T06:21:44;21.10;99.90
37300;DHT22;23184;51.902;12.836;2022-08-19T06:24:14;21.10;99.90
37300;DHT22;23184;51.902;12.836;2022-08-19T06:26:43;21.10;99.90
37300;DHT22;23184;51.902;12.836;2022-08-19T06:29:11;21.10;99.90
37300;DHT22;23184;51.902;12.836;2022-08-19T06:31:36;21.20;99.90
37300;DHT22;23184;51.902;12.836;2022-08-19T06:34:05;21.20;99.90
37300;DHT22;23184;51.902;12.836;2022-08-19T06:36:36;21.30;99.90
37300;DHT22;23184;51.902;12.836;2022-08-19T06:39:08;21.30;99.90
37300;DHT22;23184;51.902;12.836;2022-08-19T06:41:36;21.20;99.90
37300;DHT22;23184;51.902;12.836;2022-08-19T06:44:02;21.30;99.90
37300;DHT22;23184;51.902;12.836;2022-08-19T06:46:27;21.30;99.90
37300;DHT22;23184;51.902;12.836;2022-08-19T06:48:53;21.30;99.90
37300;DHT22;23184;51.902;12.836;2022-08-19T06:51:21;21.20;99.90
37300;DHT22;23184;51.902;12.836;2022-08-19T06:53:48;21.30;99.90
37300;DHT22;23184;51.902;12.836;2022-08-19T06:56:16;21.30;99.90
37300;DHT22;23184;51.902;12.836;2022-08-19T06:58:42;21.30;99.90
37300;DHT22;23184;51.902;12.836;2022-08-19T07:01:08;21.30;99.90
37300;DHT22;23184;51.902;12.836;2022-08-19T07:03:36;21.30;99.90
37300;DHT22;23184;51.902;12.836;2022-08-19T07:06:07;21.20;99.90
37300;DHT22;23184;51.902;12.836;2022-08-19T07:08:33;21.20;99.90
37300;DHT22;23184;51.902;12.836;2022-08-19T07:10:59;21.10;99.90
37300;DHT22;23184;51.902;12.836;2022-08-19T07:13:25;21.10;99.90
37300;DHT22;23184;51.902;12.836;2022-08-19T07:15:51;21.00;99.90
37300;DHT22;23184;51.902;12.836;2022-08-19T07:18:18;21.00;99.90
37300;DHT22;23184;51.902;12.836;2022-08-19T07:20:45;21.00;99.90
37300;DHT22;23184;51.902;12.836;2022-08-19T07:23:10;21.20;99.90
37300;DHT22;23184;51.902;12.836;2022-08-19T07:25:37;21.50;99.90
37300;DHT22;23184;51.902;12.836;2022-08-19T07:28:03;21.60;99.90
37300;DHT22;23184;51.902;12.836;2022-08-19T07:30:30;21.70;99.90
37300;DHT22;23184;51.902;12.836;2022-08-19T07:32:55;21.70;99.90
37300;DHT22;23184;51.902;12.836;2022-08-19T07:35:21;21.80;99.90
37300;DHT22;23184;51.902;12.836;2022-08-19T07:37:47;21.80;99.90
37300;DHT22;23184;51.902;12.836;2022-08-19T07:40:13;21.90;99.90
37300;DHT22;23184;51.902;12.836;2022-08-19T07:42:38;21.90;99.90
37300;DHT22;23184;51.902;12.836;2022-08-19T07:45:06;21.80;99.90
37300;DHT22;23184;51.902;12.836;2022-08-19T07:47:32;21.90;99.90
37300;DHT22;23184;51.902;12.836;2022-08-19T07:49:58;21.90;99.90
37300;DHT22;23184;51.902;12.836;2022-08-19T07:52:23;21.80;99.90
37300;DHT22;23184;51.902;12.836;2022-08-19T07:54:49;21.90;99.90
37300;DHT22;23184;51.902;12.836;2022-08-19T07:57:15;21.90;99.90
37300;DHT22;23184;51.902;12.836;2022-08-19T07:59:41;21.80;99.90
37300;DHT22;23184;51.902;12.836;2022-08-19T08:02:08;21.90;99.90
37300;DHT22;23184;51.902;12.836;2022-08-19T08:04:34;21.90;99.90
37300;DHT22;23184;51.902;12.836;2022-08-19T08:07:18;21.90;99.90
37300;DHT22;23184;51.902;12.836;2022-08-19T08:10:04;21.80;99.90
37300;DHT22;23184;51.902;12.836;2022-08-19T08:12:34;21.80;99.90
37300;DHT22;23184;51.902;12.836;2022-08-19T08:15:04;21.80;99.90
37300;DHT22;23184;51.902;12.836;2022-08-19T08:17:31;21.80;99.90
37300;DHT22;23184;51.902;12.836;2022-08-19T08:19:57;21.80;99.90
37300;DHT22;23184;51.902;12.836;2022-08-19T08:22:24;21.80;99.90
37300;DHT22;23184;51.902;12.836;2022-08-19T08:25:15;21.80;99.90
37300;DHT22;23184;51.902;12.836;2022-08-19T08:27:43;21.80;99.90
37300;DHT22;23184;51.902;12.836;2022-08-19T08:30:18;21.80;99.90
37300;DHT22;23184;51.902;12.836;2022-08-19T08:32:44;21.70;99.90
37300;DHT22;23184;51.902;12.836;2022-08-19T08:35:13;21.70;99.90
37300;DHT22;23184;51.902;12.836;2022-08-19T08:37:39;21.70;99.90
37300;DHT22;23184;51.902;12.836;2022-08-19T08:40:10;21.60;99.90
37300;DHT22;23184;51.902;12.836;2022-08-19T08:42:44;21.50;99.90
37300;DHT22;23184;51.902;12.836;2022-08-19T08:45:15;21.40;99.90
37300;DHT22;23184;51.902;12.836;2022-08-19T08:47:49;21.40;99.90
37300;DHT22;23184;51.902;12.836;2022-08-19T08:50:29;21.40;99.90
37300;DHT22;23184;51.902;12.836;2022-08-19T08:52:56;21.40;99.90
37300;DHT22;23184;51.902;12.836;2022-08-19T08:55:28;21.20;99.90
37300;DHT22;23184;51.902;12.836;2022-08-19T08:58:12;21.20;99.90
37300;DHT22;23184;51.902;12.836;2022-08-19T09:00:45;21.30;99.90
37300;DHT22;23184;51.902;12.836;2022-08-19T09:03:23;21.40;99.90
37300;DHT22;23184;51.902;12.836;2022-08-19T09:06:15;21.50;99.90
37300;DHT22;23184;51.902;12.836;2022-08-19T09:14:21;21.60;99.90
37300;DHT22;23184;51.902;12.836;2022-08-19T09:16:48;21.60;99.90
37300;DHT22;23184;51.902;12.836;2022-08-19T09:19:15;21.60;99.90
37300;DHT22;23184;51.902;12.836;2022-08-19T09:21:42;21.60;99.90
37300;DHT22;23184;51.902;12.836;2022-08-19T09:24:08;21.50;99.90
37300;DHT22;23184;51.902;12.836;2022-08-19T09:26:33;21.50;99.90
37300;DHT22;23184;51.902;12.836;2022-08-19T09:29:00;21.40;99.90
37300;DHT22;23184;51.902;12.836;2022-08-19T09:31:28;21.50;99.90
37300;DHT22;23184;51.902;12.836;2022-08-19T09:33:55;21.60;99.90
37300;DHT22;23184;51.902;12.836;2022-08-19T09:36:23;21.90;99.90
37300;DHT22;23184;51.902;12.836;2022-08-19T09:38:51;22.00;99.90
37300;DHT22;23184;51.902;12.836;2022-08-19T09:41:20;22.20;99.90
37300;DHT22;23184;51.902;12.836;2022-08-19T09:43:48;22.20;99.90
37300;DHT22;23184;51.902;12.836;2022-08-19T09:46:17;22.20;99.90
37300;DHT22;23184;51.902;12.836;2022-08-19T09:48:43;22.30;99.90
37300;DHT22;23184;51.902;12.836;2022-08-19T09:51:12;22.20;99.90
37300;DHT22;23184;51.902;12.836;2022-08-19T09:53:40;22.00;99.90
37300;DHT22;23184;51.902;12.836;2022-08-19T09:56:06;21.80;99.90
37300;DHT22;23184;51.902;12.836;2022-08-19T09:58:33;21.80;99.90
37300;DHT22;23184;51.902;12.836;2022-08-19T10:00:59;21.70;99.90
37300;DHT22;23184;51.902;12.836;2022-08-19T10:03:26;21.90;99.90
37300;DHT22;23184;51.902;12.836;2022-08-19T10:05:53;22.00;99.90
37300;DHT22;23184;51.902;12.836;2022-08-19T10:08:24;22.00;99.90
37300;DHT22;23184;51.902;12.836;2022-08-19T10:10:51;21.90;99.90
37300;DHT22;23184;51.902;12.836;2022-08-19T10:13:22;22.00;99.90
37300;DHT22;23184;51.902;12.836;2022-08-19T10:15:55;22.00;99.90
37300;DHT22;23184;51.902;12.836;2022-08-19T10:18:23;22.00;99.90
37300;DHT22;23184;51.902;12.836;2022-08-19T10:20:50;21.70;99.90
37300;DHT22;23184;51.902;12.836;2022-08-19T10:23:17;21.50;99.90
37300;DHT22;23184;51.902;12.836;2022-08-19T10:25:42;21.40;99.90
37300;DHT22;23184;51.902;12.836;2022-08-19T10:28:09;21.30;99.90
37300;DHT22;23184;51.902;12.836;2022-08-19T10:30:37;21.20;99.90
37300;DHT22;23184;51.902;12.836;2022-08-19T10:33:02;21.00;99.90
37300;DHT22;23184;51.902;12.836;2022-08-19T10:35:28;21.00;99.90
37300;DHT22;23184;51.902;12.836;2022-08-19T10:37:55;21.10;99.90
37300;DHT22;23184;51.902;12.836;2022-08-19T10:40:25;21.20;99.90
37300;DHT22;23184;51.902;12.836;2022-08-19T10:42:50;21.30;99.90
37300;DHT22;23184;51.902;12.836;2022-08-19T10:45:16;21.40;99.90
37300;DHT22;23184;51.902;12.836;2022-08-19T10:47:42;21.50;99.90
37300;DHT22;23184;51.902;12.836;2022-08-19T10:50:07;21.50;99.90
37300;DHT22;23184;51.902;12.836;2022-08-19T10:52:51;21.50;99.90
37300;DHT22;23184;51.902;12.836;2022-08-19T10:55:20;21.60;99.90
37300;DHT22;23184;51.902;12.836;2022-08-19T10:58:13;21.70;99.90
37300;DHT22;23184;51.902;12.836;2022-08-19T11:00:39;22.00;99.90
37300;DHT22;23184;51.902;12.836;2022-08-19T11:03:05;22.10;99.90
37300;DHT22;23184;51.902;12.836;2022-08-19T11:05:31;22.10;99.90
37300;DHT22;23184;51.902;12.836;2022-08-19T11:07:56;22.20;99.90
37300;DHT22;23184;51.902;12.836;2022-08-19T11:10:22;22.30;99.90
37300;DHT22;23184;51.902;12.836;2022-08-19T11:12:49;22.40;99.90
37300;DHT22;23184;51.902;12.836;2022-08-19T11:15:18;22.30;99.90
37300;DHT22;23184;51.902;12.836;2022-08-19T11:17:44;22.40;99.90
37300;DHT22;23184;51.902;12.836;2022-08-19T11:20:13;22.40;99.90
37300;DHT22;23184;51.902;12.836;2022-08-19T11:22:39;22.60;99.90
37300;DHT22;23184;51.902;12.836;2022-08-19T11:25:06;22.30;99.90
37300;DHT22;23184;51.902;12.836;2022-08-19T11:27:31;22.30;99.90
37300;DHT22;23184;51.902;12.836;2022-08-19T11:29:57;22.20;99.90
37300;DHT22;23184;51.902;12.836;2022-08-19T11:32:22;22.00;99.90
37300;DHT22;23184;51.902;12.836;2022-08-19T11:34:48;21.90;99.90
37300;DHT22;23184;51.902;12.836;2022-08-19T11:37:13;21.90;99.90
37300;DHT22;23184;51.902;12.836;2022-08-19T11:39:39;22.00;99.90
37300;DHT22;23184;51.902;12.836;2022-08-19T11:42:06;21.90;99.90
37300;DHT22;23184;51.902;12.836;2022-08-19T11:44:52;21.80;99.90
37300;DHT22;23184;51.902;12.836;2022-08-19T11:47:19;21.80;99.90
37300;DHT22;23184;51.902;12.836;2022-08-19T11:49:46;21.70;99.90
37300;DHT22;23184;51.902;12.836;2022-08-19T11:52:11;21.60;99.90
37300;DHT22;23184;51.902;12.836;2022-08-19T11:54:37;21.60;99.90
37300;DHT22;23184;51.902;12.836;2022-08-19T11:57:03;21.50;99.90
37300;DHT22;23184;51.902;12.836;2022-08-19T11:59:29;21.60;99.90
37300;DHT22;23184;51.902;12.836;2022-08-19T12:01:55;21.50;99.90
37300;DHT22;23184;51.902;12.836;2022-08-19T12:04:23;21.40;99.90
37300;DHT22;23184;51.902;12.836;2022-08-19T12:06:49;21.40;99.90
37300;DHT22;23184;51.902;12.836;2022-08-19T12:09:15;21.40;99.90
37300;DHT22;23184;51.902;12.836;2022-08-19T12:11:42;21.40;99.90
37300;DHT22;23184;51.902;12.836;2022-08-19T12:14:10;21.60;99.90
37300;DHT22;23184;51.902;12.836;2022-08-19T12:16:36;21.70;99.90
37300;DHT22;23184;51.902;12.836;2022-08-19T12:19:03;21.80;99.90
37300;DHT22;23184;51.902;12.836;2022-08-19T12:21:31;21.80;99.90
37300;DHT22;23184;51.902;12.836;2022-08-19T12:23:58;21.80;99.90
37300;DHT22;23184;51.902;12.836;2022-08-19T12:26:26;21.70;99.90
37300;DHT22;23184;51.902;12.836;2022-08-19T12:28:52;21.70;99.90
37300;DHT22;23184;51.902;12.836;2022-08-19T12:31:18;21.60;99.90
37300;DHT22;23184;51.902;12.836;2022-08-19T12:33:45;21.50;99.90
37300;DHT22;23184;51.902;12.836;2022-08-19T12:36:12;21.60;99.90
37300;DHT22;23184;51.902;12.836;2022-08-19T12:38:38;21.50;99.90
37300;DHT22;23184;51.902;12.836;2022-08-19T12:41:05;21.50;99.90
37300;DHT22;23184;51.902;12.836;2022-08-19T12:43:31;21.40;99.90
37300;DHT22;23184;51.902;12.836;2022-08-19T12:45:57;21.40;99.90
37300;DHT22;23184;51.902;12.836;2022-08-19T12:48:23;21.40;99.90
37300;DHT22;23184;51.902;12.836;2022-08-19T12:50:49;21.30;99.90
37300;DHT22;23184;51.902;12.836;2022-08-19T12:53:15;21.30;99.90
37300;DHT22;23184;51.902;12.836;2022-08-19T12:55:41;21.30;99.90
37300;DHT22;23184;51.902;12.836;2022-08-19T12:58:08;21.30;99.90
37300;DHT22;23184;51.902;12.836;2022-08-19T13:00:33;21.30;99.90
37300;DHT22;23184;51.902;12.836;2022-08-19T13:03:00;21.50;99.90
37300;DHT22;23184;51.902;12.836;2022-08-19T13:05:28;21.60;99.90
37300;DHT22;23184;51.902;12.836;2022-08-19T13:07:55;21.70;99.90
37300;DHT22;23184;51.902;12.836;2022-08-19T13:10:22;21.80;99.90
37300;DHT22;23184;51.902;12.836;2022-08-19T13:12:50;21.80;99.90
37300;DHT22;23184;51.902;12.836;2022-08-19T13:15:17;21.80;99.90
37300;DHT22;23184;51.902;12.836;2022-08-19T13:17:47;21.80;99.90
37300;DHT22;23184;51.902;12.836;2022-08-19T13:20:15;21.90;99.90
37300;DHT22;23184;51.902;12.836;2022-08-19T13:22:41;22.00;99.90
37300;DHT22;23184;51.902;12.836;2022-08-19T13:25:08;21.90;99.90
37300;DHT22;23184;51.902;12.836;2022-08-19T13:27:34;22.00;99.90
37300;DHT22;23184;51.902;12.836;2022-08-19T13:30:01;22.10;99.90
37300;DHT22;23184;51.902;12.836;2022-08-19T13:32:46;22.10;99.90
37300;DHT22;23184;51.902;12.836;2022-08-19T13:35:30;22.10;99.90
37300;DHT22;23184;51.902;12.836;2022-08-19T13:37:55;22.10;99.90
37300;DHT22;23184;51.902;12.836;2022-08-19T13:40:23;22.20;99.90
37300;DHT22;23184;51.902;12.836;2022-08-19T13:42:52;22.20;99.90
37300;DHT22;23184;51.902;12.836;2022-08-19T13:45:21;22.20;99.90
37300;DHT22;23184;51.902;12.836;2022-08-19T13:47:49;22.10;99.90
37300;DHT22;23184;51.902;12.836;2022-08-19T13:50:17;22.00;99.90
37300;DHT22;23184;51.902;12.836;2022-08-19T13:52:43;22.00;99.90
37300;DHT22;23184;51.902;12.836;2022-08-19T13:55:10;21.90;99.90
37300;DHT22;23184;51.902;12.836;2022-08-19T13:57:37;22.00;99.90
37300;DHT22;23184;51.902;12.836;2022-08-19T14:00:14;22.10;99.90
37300;DHT22;23184;51.902;12.836;2022-08-19T14:02:40;22.20;99.90
37300;DHT22;23184;51.902;12.836;2022-08-19T14:05:08;22.30;99.90
37300;DHT22;23184;51.902;12.836;2022-08-19T14:07:34;22.30;99.90
37300;DHT22;23184;51.902;12.836;2022-08-19T14:10:02;22.40;99.90
37300;DHT22;23184;51.902;12.836;2022-08-19T14:12:28;22.40;99.90
37300;DHT22;23184;51.902;12.836;2022-08-19T14:14:53;22.30;99.90
37300;DHT22;23184;51.902;12.836;2022-08-19T14:17:19;22.20;99.90
37300;DHT22;23184;51.902;12.836;2022-08-19T14:19:44;22.10;99.90
37300;DHT22;23184;51.902;12.836;2022-08-19T14:22:10;21.90;99.90
37300;DHT22;23184;51.902;12.836;2022-08-19T14:24:37;21.80;99.90
37300;DHT22;23184;51.902;12.836;2022-08-19T14:27:05;21.70;99.90
37300;DHT22;23184;51.902;12.836;2022-08-19T14:29:31;21.70;99.90
37300;DHT22;23184;51.902;12.836;2022-08-19T14:31:56;21.60;99.90
37300;DHT22;23184;51.902;12.836;2022-08-19T14:34:27;21.60;99.90
37300;DHT22;23184;51.902;12.836;2022-08-19T14:36:53;21.70;99.90
37300;DHT22;23184;51.902;12.836;2022-08-19T14:39:18;21.70;99.90
37300;DHT22;23184;51.902;12.836;2022-08-19T14:41:44;21.80;99.90
37300;DHT22;23184;51.902;12.836;2022-08-19T14:44:11;21.90;99.90
37300;DHT22;23184;51.902;12.836;2022-08-19T14:46:38;22.00;99.90
37300;DHT22;23184;51.902;12.836;2022-08-19T14:49:04;22.10;99.90
37300;DHT22;23184;51.902;12.836;2022-08-19T14:51:30;22.30;99.90
37300;DHT22;23184;51.902;12.836;2022-08-19T14:53:56;22.40;99.90
37300;DHT22;23184;51.902;12.836;2022-08-19T14:56:24;22.60;99.90
37300;DHT22;23184;51.902;12.836;2022-08-19T14:58:51;22.60;99.90
37300;DHT22;23184;51.902;12.836;2022-08-19T15:01:17;22.60;99.90
37300;DHT22;23184;51.902;12.836;2022-08-19T15:03:45;22.60;99.90
37300;DHT22;23184;51.902;12.836;2022-08-19T15:06:10;22.60;99.90
37300;DHT22;23184;51.902;12.836;2022-08-19T15:08:37;22.70;99.90
37300;DHT22;23184;51.902;12.836;2022-08-19T15:11:08;22.70;99.90
37300;DHT22;23184;51.902;12.836;2022-08-19T15:13:35;22.80;99.90
37300;DHT22;23184;51.902;12.836;2022-08-19T15:16:02;23.00;99.90
37300;DHT22;23184;51.902;12.836;2022-08-19T15:18:28;23.00;99.90
37300;DHT22;23184;51.902;12.836;2022-08-19T15:20:53;23.00;99.90
37300;DHT22;23184;51.902;12.836;2022-08-19T15:23:20;22.90;99.90
37300;DHT22;23184;51.902;12.836;2022-08-19T15:25:46;22.80;99.90
37300;DHT22;23184;51.902;12.836;2022-08-19T15:28:12;22.70;99.90